Tiempo atmosférico en la estación meteorológica de Llucmajor, Puig d?Escorca, Illes Balears (113 m.)



Fecha
DESCASC
Temp. máxima en grados centígrados (hora)
DESCASC
Temp. mínima en grados centígrados (hora)
DESCASC
Temp. media en grados centígrados
DESCASC
Racha de viento máxima en m/sg (hora)
DESCASC
Velocidad máxima media en intervalos de 10 minutos(hora)
DESCASC
Precipitaciones diarias en mm
DESCASC
Precipitaciones de 00:00 a 06:00 en mm
DESCASC
Precipitaciones de 06:00 a 12:00 en mm
DESCASC
Precipitaciones de 12:00 a 18:00 en mm
DESCASC
Precipitaciones de 18:00 a 24:00 en mm
DESCASC

Gráficas

Temp. máximas Temp. mínimas Temp. medias Precipitaciones Rachas de viento máximas Velocidades máximas media en intervalos de 10 minutos

Datos horarios

Fecha y hora oficial Temperatura (ºC) Velocidad del viento (km/h) Dirección del viento Racha (km/h) Dirección de racha Precipitación (mm) Presión (hPa) Tendencia (hPa) Humedad (%)
2019-08-22 23:00:00 23 10 Nordeste 13 Norte 0 -- -- 37
2019-08-22 22:00:00 23.9 8 Nordeste 16 Norte 0 -- -- 37
2019-08-22 21:00:00 24.8 10 Norte 15 Nordeste 0 -- -- 37
2019-08-22 20:00:00 28 9 Nordeste 19 Nordeste 0 -- -- 34
2019-08-22 19:00:00 30.7 8 Este 22 Este 0 -- -- 31
2019-08-22 18:00:00 31.5 13 Norte 28 Norte 0 -- -- 29
2019-08-22 17:00:00 32 16 Nordeste 41 Nordeste 0 -- -- 30
2019-08-22 16:00:00 32.5 17 Nordeste 37 Nordeste 0 -- -- 30
2019-08-22 15:00:00 32.7 17 Nordeste 37 Nordeste 0 -- -- 31
2019-08-22 14:00:00 31.6 20 Nordeste 37 Nordeste 0 -- -- 33
2019-08-22 13:00:00 31.2 18 Nordeste 30 Nordeste 0 -- -- 39
2019-08-22 12:00:00 31 14 Nordeste 30 Norte 0 -- -- 35
2019-08-22 11:00:00 30.2 9 Norte 27 Norte 0 -- -- 38
2019-08-22 10:00:00 27.6 14 Norte 25 Norte 0 -- -- 49
2019-08-22 09:00:00 25.2 13 Norte 21 Norte 0 -- -- 58
2019-08-22 08:00:00 22.1 8 Nordeste 12 Norte 0 -- -- 66
2019-08-22 07:00:00 20 9 Norte 17 Norte 0 -- -- 66
2019-08-22 06:00:00 19.8 11 Norte 16 Norte 0 -- -- 69
2019-08-22 05:00:00 20.1 7 Norte 16 Nordeste 0 -- -- 66
2019-08-22 04:00:00 20.5 10 Norte 14 Nordeste 0 -- -- 63
2019-08-22 03:00:00 20.1 6 Nordeste 11 Nordeste 0 -- -- 68
2019-08-22 02:00:00 20.2 7 Norte 14 Norte 0 -- -- 69
2019-08-22 01:00:00 20.4 10 Norte 14 Norte 0 -- -- 68
2019-08-22 00:00:00 21.1 9 Nordeste 12 Nordeste 0 -- -- 65
2019-08-21 23:00:00 21.9 8 Nordeste 10 Norte 0 -- -- 63
2019-08-21 22:00:00 22.7 6 Nordeste 12 Nordeste 0 -- -- 61
2019-08-21 21:00:00 24.1 5 Noroeste 14 Oeste 0 -- -- 67
2019-08-21 20:00:00 26.4 9 Oeste 22 Oeste 0 -- -- 60
2019-08-21 19:00:00 27.5 14 Oeste 27 Oeste 0 -- -- 56
2019-08-21 18:00:00 28.4 14 Oeste 27 Oeste 0 -- -- 52
2019-08-21 17:00:00 29.9 17 Oeste 32 Oeste 0 -- -- 45
2019-08-21 16:00:00 29.7 14 Oeste 31 Oeste 0 -- -- 44
2019-08-21 15:00:00 31.1 11 Noroeste 29 Este 0 -- -- 43
2019-08-21 14:00:00 31.5 13 Nordeste 30 Norte 0 -- -- 29
2019-08-21 13:00:00 29.8 12 Nordeste 32 Nordeste 0 -- -- 35
2019-08-21 12:00:00 29.2 19 Nordeste 41 Nordeste 0 -- -- 36
2019-08-21 11:00:00 28.7 18 Nordeste 34 Nordeste 0 -- -- 39
2019-08-21 10:00:00 27.4 17 Nordeste 37 Nordeste 0 -- -- 46
2019-08-21 09:00:00 25.2 18 Nordeste 32 Este 0 -- -- 58
2019-08-21 08:00:00 22.5 13 Nordeste 26 Nordeste 0 -- -- 68
2019-08-21 07:00:00 20.9 12 Nordeste 27 Nordeste 0 -- -- 74
2019-08-21 06:00:00 20.9 14 Nordeste 31 Nordeste 0 -- -- 75
2019-08-21 05:00:00 21.2 13 Nordeste 31 Nordeste 0 -- -- 75
2019-08-21 04:00:00 21.5 18 Nordeste 33 Nordeste 0 -- -- 75
2019-08-21 03:00:00 21.7 17 Nordeste 35 Nordeste 0 -- -- 74
2019-08-21 02:00:00 22.1 19 Nordeste 35 Nordeste 0 -- -- 70
2019-08-21 01:00:00 22.2 19 Nordeste 39 Nordeste 0 -- -- 70
2019-08-21 00:00:00 22.6 21 Nordeste 39 Nordeste 0 -- -- 75
2019-08-20 23:00:00 23 22 Nordeste 37 Nordeste 0 -- -- 74
2019-08-20 22:00:00 23 18 Nordeste 37 Nordeste 0 -- -- 73
2019-08-20 21:00:00 23.3 23 Nordeste 44 Nordeste 0 -- -- 71
2019-08-20 20:00:00 24.2 25 Nordeste 45 Nordeste 0 -- -- 69
2019-08-20 19:00:00 25.4 24 Nordeste 49 Este 0 -- -- 67
2019-08-20 18:00:00 30 21 Nordeste 51 Nordeste 0 -- -- 54
2019-08-20 17:00:00 30.7 25 Nordeste 46 Nordeste 0 -- -- 53
2019-08-20 16:00:00 31.7 23 Nordeste 45 Nordeste 0 -- -- 53
2019-08-20 15:00:00 30.2 14 Nordeste 36 Nordeste 0 -- -- 58
2019-08-20 14:00:00 31.2 20 Sudeste 36 Sudeste 0 -- -- 56
2019-08-20 13:00:00 31.1 19 Sudeste 34 Sudeste 0 -- -- 56
2019-08-20 12:00:00 30.8 15 Sudeste 40 Este 0 -- -- 58
2019-08-20 11:00:00 28.9 15 Este 29 Nordeste 0 -- -- 62
2019-08-20 10:00:00 28.8 11 Este 25 Este 0 -- -- 69
2019-08-20 09:00:00 27.3 10 Nordeste 17 Nordeste 0 -- -- 81
2019-08-20 08:00:00 23.6 10 Nordeste 18 Nordeste 0 -- -- 93
2019-08-20 07:00:00 22.5 11 Nordeste 22 Nordeste 0 -- -- 94
2019-08-20 06:00:00 22.7 10 Nordeste 21 Nordeste 0 -- -- 93
2019-08-20 05:00:00 22.8 8 Nordeste 15 Nordeste 0 -- -- 93
2019-08-20 04:00:00 23.1 13 Nordeste 19 Nordeste 0 -- -- 92
2019-08-20 03:00:00 23.3 10 Nordeste 18 Nordeste 0 -- -- 91
2019-08-20 02:00:00 23.4 10 Nordeste 15 Nordeste 0 -- -- 90
2019-08-20 01:00:00 23.8 8 Este 12 Este 0 -- -- 88
2019-08-20 00:00:00 24.5 9 Este 15 Este 0 -- -- 87
2019-08-19 23:00:00 25 10 Este 20 Este 0 -- -- 85
2019-08-19 22:00:00 25.4 8 Este 23 Este 0 -- -- 84
2019-08-19 21:00:00 25.8 15 Este 26 Sudeste 0 -- -- 82
2019-08-19 20:00:00 27.2 18 Sudeste 33 Sudeste 0 -- -- 76
2019-08-19 19:00:00 28.7 14 Sudeste 28 Sudeste 0 -- -- 70
2019-08-19 18:00:00 29.9 14 Sudeste 29 Sudeste 0 -- -- 67
2019-08-19 17:00:00 29.8 16 Sudeste 30 Sudeste 0 -- -- 68
2019-08-19 16:00:00 30.2 19 Sudeste 31 Sudeste 0 -- -- 66
2019-08-19 15:00:00 29.8 19 Sudeste 29 Sudeste 0 -- -- 69
2019-08-19 14:00:00 30 18 Sudeste 30 Sur 0 -- -- 66
2019-08-19 13:00:00 30 19 Sudeste 27 Sudeste 0 -- -- 68
2019-08-19 12:00:00 29.6 18 Sudeste 26 Sur 0 -- -- 69
2019-08-19 11:00:00 30 14 Sudeste 27 Este 0 -- -- 69
2019-08-19 10:00:00 29 13 Este 37 Sudeste 0 -- -- 73
2019-08-19 09:00:00 27.2 10 Este 23 Este 0 -- -- 83
2019-08-19 08:00:00 23.8 12 Este 17 Nordeste 0 -- -- 91
2019-08-19 07:00:00 22.1 10 Nordeste 17 Nordeste 0 -- -- 93
2019-08-19 06:00:00 21.7 12 Nordeste 17 Nordeste 0 -- -- 94
2019-08-19 05:00:00 22.1 11 Nordeste 18 Nordeste 0 -- -- 95
2019-08-19 04:00:00 22.6 12 Nordeste 16 Nordeste 0 -- -- 94
2019-08-19 03:00:00 23 9 Norte 15 Norte 0 -- -- 94
2019-08-19 02:00:00 23.3 11 Nordeste 16 Nordeste 0 -- -- 93
2019-08-19 01:00:00 23.6 9 Nordeste 14 Nordeste 0 -- -- 92
2019-08-19 00:00:00 24.7 8 Este 25 Sudeste 0 -- -- 90
2019-08-18 23:00:00 25.3 17 Sudeste 30 Sudeste 0 -- -- 88
2019-08-18 22:00:00 25.6 17 Este 27 Este 0 -- -- 82
2019-08-18 21:00:00 26.4 18 Este 28 Este 0 -- -- 74
2019-08-18 20:00:00 28.3 22 Este 32 Sudeste 0 -- -- 65
2019-08-18 19:00:00 29.8 19 Sudeste 33 Este 0 -- -- 55
2019-08-18 18:00:00 30.3 21 Sudeste 32 Este 0 -- -- 57
2019-08-18 17:00:00 31.3 18 Sudeste 30 Sudeste 0 -- -- 54
2019-08-18 16:00:00 31.7 18 Sudeste 30 Sudeste 0 -- -- 51
2019-08-18 15:00:00 31.7 18 Sudeste 31 Sudeste 0 -- -- 52
2019-08-18 14:00:00 32.4 17 Sudeste 32 Sudeste 0 -- -- 46
2019-08-18 13:00:00 32.4 22 Sudeste 33 Sudeste 0 -- -- 38
2019-08-18 12:00:00 32.1 14 Sudeste 24 Sudeste 0 -- -- 49
2019-08-18 11:00:00 31.5 14 Sudeste 27 Sudeste 0 -- -- 50
2019-08-18 10:00:00 30 15 Este 26 Este 0 -- -- 60
2019-08-18 09:00:00 27.1 14 Este 26 Este 0 -- -- 89
2019-08-18 08:00:00 23.3 12 Nordeste 20 Nordeste 0 -- -- 95
2019-08-18 07:00:00 22.4 12 Nordeste 19 Nordeste 0 -- -- 95
2019-08-18 06:00:00 22.6 10 Nordeste 14 Nordeste 0 -- -- 94
2019-08-18 05:00:00 22.7 8 Nordeste 14 Nordeste 0 -- -- 93
2019-08-18 04:00:00 23 8 Nordeste 11 Nordeste 0 -- -- 92
2019-08-18 03:00:00 23.3 6 Norte 13 Nordeste 0 -- -- 91
2019-08-18 02:00:00 23.8 8 Este 14 Este 0 -- -- 91
2019-08-18 01:00:00 24.2 10 Este 20 Este 0 -- -- 89
2019-08-18 00:00:00 24.5 13 Este 24 Este 0 -- -- 89
2019-08-17 23:00:00 24.8 14 Este 24 Sudeste 0 -- -- 88
2019-08-17 22:00:00 25.2 14 Este 26 Este 0 -- -- 86
2019-08-17 21:00:00 25.4 16 Este 31 Sudeste 0 -- -- 84
2019-08-17 20:00:00 26.6 18 Sudeste 29 Este 0 -- -- 79
2019-08-17 19:00:00 28.6 15 Sudeste 27 Sudeste 0 -- -- 72
2019-08-17 18:00:00 29.1 16 Sudeste 25 Sudeste 0 -- -- 69
2019-08-17 17:00:00 29.8 14 Sudeste 27 Sudeste 0 -- -- 65
2019-08-17 16:00:00 29.5 17 Sudeste 26 Sudeste 0 -- -- 66
2019-08-17 15:00:00 30.1 16 Sudeste 33 Este 0 -- -- 64
2019-08-17 14:00:00 29.2 19 Sudeste 30 Este 0 -- -- 67
2019-08-17 13:00:00 29.3 18 Sudeste 30 Sudeste 0 -- -- 65
2019-08-17 12:00:00 29.8 15 Sudeste 27 Sudeste 0 -- -- 63
2019-08-17 11:00:00 29.6 12 Sudeste 26 Este 0 -- -- 62
2019-08-17 10:00:00 28.3 17 Sudeste 26 Este 0 -- -- 65
2019-08-17 09:00:00 26.8 13 Este 21 Este 0 -- -- 80
2019-08-17 08:00:00 22.6 9 Nordeste 14 Nordeste 0 -- -- 92
2019-08-17 07:00:00 21.3 9 Este 15 Este 0 -- -- 92
2019-08-17 06:00:00 21.3 8 Nordeste 11 Nordeste 0 -- -- 91
2019-08-17 05:00:00 21.5 6 Nordeste 10 Nordeste 0 -- -- 90
2019-08-17 04:00:00 21.7 6 Nordeste 12 Nordeste 0 -- -- 90
2019-08-17 03:00:00 21.8 7 Norte 10 Norte 0 -- -- 90
2019-08-17 02:00:00 22.1 0 Calma 5 Este 0 -- -- 88
2019-08-17 01:00:00 21.6 5 Nordeste 8 Este 0 -- -- 87
2019-08-17 00:00:00 22.6 7 Este 12 Sudeste 0 -- -- 85
2019-08-16 23:00:00 23.4 5 Sudeste 8 Sudeste 0 -- -- 83
2019-08-16 22:00:00 24.1 4 Sudeste 12 Sudeste 0 -- -- 81
2019-08-16 21:00:00 24.9 7 Sudeste 16 Sur 0 -- -- 77
2019-08-16 20:00:00 26.7 10 Sur 17 Sur 0 -- -- 70
2019-08-16 19:00:00 27.9 13 Sur 24 Sur 0 -- -- 67
2019-08-16 18:00:00 28.4 15 Sudeste 26 Sudeste 0 -- -- 63
2019-08-16 17:00:00 28.4 16 Sudeste 32 Sur 0 -- -- 63
2019-08-16 16:00:00 29 16 Sudeste 29 Sudeste 0 -- -- 59
2019-08-16 15:00:00 28.9 17 Sudeste 28 Sudeste 0 -- -- 57
2019-08-16 14:00:00 28.8 19 Sudeste 29 Sur 0 -- -- 59
2019-08-16 13:00:00 29.1 17 Sudeste 31 Sudeste 0 -- -- 58
2019-08-16 12:00:00 28.8 16 Sudeste 27 Sur 0 -- -- 61
2019-08-16 11:00:00 29.2 15 Sudeste 24 Sudeste 0 -- -- 61
2019-08-16 10:00:00 28.1 13 Sudeste 24 Este 0 -- -- 63
2019-08-16 09:00:00 26.3 14 Este 21 Este 0 -- -- 72
2019-08-16 08:00:00 23 9 Este 14 Nordeste 0 -- -- 87
2019-08-16 07:00:00 21.1 10 Nordeste 16 Nordeste 0 -- -- 88
2019-08-16 06:00:00 21 10 Nordeste 17 Nordeste 0 -- -- 88
2019-08-16 05:00:00 21.2 11 Nordeste 15 Nordeste 0 -- -- 88
2019-08-16 04:00:00 21.4 10 Nordeste 15 Nordeste 0 -- -- 87
2019-08-16 03:00:00 21.9 10 Nordeste 16 Nordeste 0 -- -- 86
2019-08-16 02:00:00 22.1 10 Nordeste 16 Este 0 -- -- 85
2019-08-16 01:00:00 22.1 9 Nordeste 14 Nordeste 0 -- -- 84
2019-08-16 00:00:00 22.6 8 Nordeste 12 Nordeste 0 -- -- 83
2019-08-15 23:00:00 23.4 9 Este 13 Sudeste 0 -- -- 80
2019-08-15 22:00:00 24.3 6 Sudeste 16 Sudeste 0 -- -- 75
2019-08-15 21:00:00 25.1 7 Sudeste 10 Sudeste 0 -- -- 67
2019-08-15 20:00:00 27.2 7 Sudeste 17 Sudeste 0 -- -- 63
2019-08-15 19:00:00 27.9 13 Sur 18 Sur 0 -- -- 61
2019-08-15 18:00:00 29 12 Sur 22 Sur 0 -- -- 60
2019-08-15 17:00:00 28.6 16 Sur 26 Sudoeste 0 -- -- 61
2019-08-15 16:00:00 28.3 19 Sur 28 Sur 0 -- -- 63
2019-08-15 15:00:00 28.7 16 Sur 26 Sur 0 -- -- 61
2019-08-15 14:00:00 28.9 14 Sudoeste 23 Sur 0 -- -- 61
2019-08-15 13:00:00 28.9 13 Sur 22 Sur 0 -- -- 62
2019-08-15 12:00:00 28.7 14 Sur 23 Sur 0 -- -- 60
2019-08-15 11:00:00 28.5 10 Sudeste 20 Sudeste 0 -- -- 63
2019-08-15 10:00:00 28.2 9 Sudeste 15 Sudeste 0 -- -- 64
2019-08-15 09:00:00 27.6 4 Sudeste 8 Sudeste 0 -- -- 69
2019-08-15 08:00:00 23.5 4 Este 7 Este 0 -- -- 87
2019-08-15 07:00:00 20.6 5 Este 8 Nordeste 0 -- -- 88
2019-08-15 06:00:00 21.1 5 Nordeste 6 Nordeste 0 -- -- 84
2019-08-15 05:00:00 22.7 2 Sudeste 5 Sudeste 0 -- -- 84
2019-08-15 04:00:00 22.2 0 Calma 5 Sudoeste 0 -- -- 83
2019-08-15 03:00:00 22.8 3 Oeste 6 Sudoeste 0 -- -- 81
2019-08-15 02:00:00 23 5 Sudoeste 6 Sudoeste 0 -- -- 79
2019-08-15 01:00:00 23.1 4 Sudoeste 7 Sudoeste 0 -- -- 78
2019-08-15 00:00:00 23.3 4 Sudoeste 12 Sudoeste 0 -- -- 77
2019-08-14 23:00:00 23.6 8 Oeste 14 Sudoeste 0 -- -- 77
2019-08-14 22:00:00 24.2 9 Sudoeste 18 Sudoeste 0 -- -- 73
2019-08-14 21:00:00 24.7 13 Sudoeste 25 Oeste 0 -- -- 69
2019-08-14 20:00:00 26.9 15 Sudoeste 24 Oeste 0 -- -- 62
2019-08-14 19:00:00 28.6 15 Sudoeste 28 Oeste 0 -- -- 56
2019-08-14 18:00:00 29.2 18 Oeste 30 Oeste 0 -- -- 56
2019-08-14 17:00:00 29.3 19 Oeste 32 Sudoeste 0 -- -- 56
2019-08-14 16:00:00 29.3 19 Sudoeste 31 Sudoeste 0 -- -- 55
2019-08-14 15:00:00 29.5 18 Sudoeste 30 Oeste 0 -- -- 52
2019-08-14 14:00:00 29.4 17 Sudoeste 32 Oeste 0 -- -- 52
2019-08-14 13:00:00 28.9 18 Oeste 31 Oeste 0 -- -- 54
2019-08-14 12:00:00 29 14 Sudoeste 23 Oeste 0 -- -- 55
2019-08-14 11:00:00 28.6 12 Sudoeste 21 Oeste 0 -- -- 57
2019-08-14 10:00:00 28 11 Sudoeste 31 Oeste 0 -- -- 59
2019-08-14 09:00:00 27.2 7 Sudoeste 15 Sur 0 -- -- 63
2019-08-14 08:00:00 23.1 3 Este 9 Nordeste 0 -- -- 78
2019-08-14 07:00:00 19.9 4 Este 9 Este 0 -- -- 81
2019-08-14 06:00:00 20 6 Este 8 Este 0 -- -- 78
2019-08-14 05:00:00 20.4 5 Este 10 Este 0 -- -- 77
2019-08-14 04:00:00 21.5 2 Sudeste 8 Este 0 -- -- 75
2019-08-14 03:00:00 20.8 7 Nordeste 9 Nordeste 0 -- -- 75
2019-08-14 02:00:00 20.6 8 Nordeste 9 Nordeste 0 -- -- 74
2019-08-14 01:00:00 21.1 5 Nordeste 10 Este 0 -- -- 72
2019-08-14 00:00:00 21.4 7 Este 10 Este 0 -- -- 72
2019-08-13 23:00:00 22.4 5 Sudeste 9 Sudeste 0 -- -- 70
2019-08-13 22:00:00 23 6 Sudeste 12 Sudeste 0 -- -- 68
2019-08-13 21:00:00 23.9 7 Sudeste 19 Sudeste 0 -- -- 65
2019-08-13 20:00:00 25.6 11 Sudeste 23 Sudeste 0 -- -- 60
2019-08-13 19:00:00 26.9 13 Sudeste 27 Sur 0 -- -- 55
2019-08-13 18:00:00 27.9 17 Sur 27 Sur 0 -- -- 51
2019-08-13 17:00:00 30.1 13 Sudoeste 26 Sudoeste 0 -- -- 45
2019-08-13 16:00:00 31.1 13 Oeste 22 Oeste 0 -- -- 38
2019-08-13 15:00:00 30.1 8 Este 27 Nordeste 0 -- -- 38
2019-08-13 14:00:00 28.9 9 Nordeste 30 Nordeste 0 -- -- 41
2019-08-13 13:00:00 27.9 16 Nordeste 33 Nordeste 0 -- -- 45
2019-08-13 12:00:00 26.8 21 Nordeste 37 Nordeste 0 -- -- 45
2019-08-13 11:00:00 26.7 21 Nordeste 40 Nordeste 0 -- -- 46
2019-08-13 10:00:00 24.9 26 Nordeste 45 Nordeste 0 -- -- 52
2019-08-13 09:00:00 25.1 22 Nordeste 48 Nordeste 0 -- -- 54
2019-08-13 08:00:00 22.3 20 Nordeste 36 Nordeste 0 -- -- 66
2019-08-13 07:00:00 21.9 20 Nordeste 39 Nordeste 0 -- -- 66
2019-08-13 06:00:00 22 17 Nordeste 32 Nordeste 0 -- -- 64
2019-08-13 05:00:00 22.2 17 Nordeste 32 Nordeste 0 -- -- 63
2019-08-13 04:00:00 22.5 18 Nordeste 34 Nordeste 0 -- -- 64
2019-08-13 03:00:00 22.8 19 Nordeste 33 Este 0 -- -- 67
2019-08-13 02:00:00 23.2 18 Nordeste 32 Norte 0 -- -- 69
2019-08-13 01:00:00 23.4 16 Nordeste 33 Este 0 -- -- 66
2019-08-13 00:00:00 23.7 18 Nordeste 42 Este 0 -- -- 66
2019-08-12 23:00:00 23.7 19 Nordeste 38 Nordeste 0 -- -- 67
2019-08-12 22:00:00 23.8 20 Nordeste 34 Nordeste 0 -- -- 69
2019-08-12 21:00:00 24.2 20 Nordeste 32 Nordeste 0 -- -- 69
2019-08-12 20:00:00 25.7 19 Nordeste 33 Nordeste 0 -- -- 66
2019-08-12 19:00:00 29.1 17 Nordeste 30 Nordeste 0 -- -- 56
2019-08-12 18:00:00 30.7 17 Nordeste 30 Este 0 -- -- 54
2019-08-12 17:00:00 31.3 18 Nordeste 33 Nordeste 0 -- -- 52
2019-08-12 16:00:00 31.7 17 Nordeste 35 Este 0 -- -- 53
2019-08-12 15:00:00 29.8 17 Nordeste 31 Nordeste 0 -- -- 59
2019-08-12 14:00:00 30.5 13 Este 28 Nordeste 0 -- -- 57
2019-08-12 13:00:00 31.8 17 Nordeste 31 Este 0 -- -- 55
2019-08-12 12:00:00 30.7 15 Nordeste 29 Nordeste 0 -- -- 57
2019-08-12 11:00:00 29.4 17 Nordeste 31 Nordeste 0 -- -- 66
2019-08-12 10:00:00 27.7 17 Nordeste 32 Nordeste 0 -- -- 75
2019-08-12 09:00:00 26.8 14 Nordeste 27 Este 0 -- -- 83
2019-08-12 08:00:00 25.1 11 Este 21 Nordeste 0 -- -- 91
2019-08-12 07:00:00 24.1 9 Nordeste 14 Nordeste 0 -- -- 92
2019-08-12 06:00:00 24.3 7 Nordeste 12 Nordeste 0 -- -- 92
2019-08-12 05:00:00 24.6 7 Nordeste 10 Nordeste 0 -- -- 91
2019-08-12 04:00:00 25 6 Noroeste 11 Noroeste 0 -- -- 91
2019-08-12 03:00:00 25.6 4 Nordeste 10 Sudoeste 0 -- -- 90
2019-08-12 02:00:00 26.1 8 Oeste 21 Oeste 0 -- -- 90
2019-08-12 01:00:00 26.1 14 Oeste 22 Oeste 0 -- -- 91
2019-08-12 00:00:00 25.7 8 Oeste 12 Oeste 0 -- -- 91
2019-08-11 23:00:00 25.4 7 Oeste 10 Oeste 0 -- -- 89
2019-08-11 22:00:00 25.3 3 Noroeste 8 Oeste 0 -- -- 87
2019-08-11 21:00:00 26.2 5 Oeste 15 Oeste 0 -- -- 84
2019-08-11 20:00:00 28.2 9 Oeste 18 Oeste 0 -- -- 77
2019-08-11 19:00:00 29.5 11 Oeste 22 Oeste 0 -- -- 72
2019-08-11 18:00:00 30.4 13 Oeste 21 Sudoeste 0 -- -- 65
2019-08-11 17:00:00 30.9 12 Oeste 22 Sudoeste 0 -- -- 65
2019-08-11 16:00:00 31 14 Sudoeste 28 Oeste 0 -- -- 65
2019-08-11 15:00:00 31 17 Sudoeste 28 Oeste 0 -- -- 66
2019-08-11 14:00:00 30.3 12 Sudoeste 21 Sudoeste 0 -- -- 69
2019-08-11 13:00:00 30.1 15 Sudoeste 23 Sudoeste 0 -- -- 69
2019-08-11 12:00:00 29.7 14 Sur 24 Sur 0 -- -- 72
2019-08-11 11:00:00 29.5 12 Sudeste 22 Sur 0 -- -- 74
2019-08-11 10:00:00 29.6 10 Este 21 Este 0 -- -- 77
2019-08-11 09:00:00 26.4 11 Este 18 Nordeste 0 -- -- 92
2019-08-11 08:00:00 24.5 8 Nordeste 14 Este 0 -- -- 94
2019-08-11 07:00:00 23.9 8 Nordeste 12 Nordeste 0 -- -- 94
2019-08-11 06:00:00 24.1 7 Nordeste 13 Nordeste 0 -- -- 93
2019-08-11 05:00:00 24.5 6 Este 12 Nordeste 0 -- -- 92
2019-08-11 04:00:00 24.6 8 Nordeste 17 Nordeste 0 -- -- 91
2019-08-11 03:00:00 24.6 6 Nordeste 12 Nordeste 0 -- -- 91
2019-08-11 02:00:00 25 8 Nordeste 17 Este 0 -- -- 90
2019-08-11 01:00:00 25.4 9 Este 19 Este 0 -- -- 89
2019-08-11 00:00:00 25.9 13 Este 22 Este 0 -- -- 88
2019-08-10 23:00:00 25.9 10 Este 22 Este 0 -- -- 82
2019-08-10 22:00:00 26.7 10 Este 15 Sudeste 0 -- -- 79
2019-08-10 21:00:00 27.1 5 Sudeste 15 Sudeste 0 -- -- 79
2019-08-10 20:00:00 28.1 10 Sudeste 16 Sudeste 0 -- -- 81
2019-08-10 19:00:00 29.4 10 Sur 18 Sur 0 -- -- 76
2019-08-10 18:00:00 30 12 Sudoeste 31 Sudeste 0 -- -- 74
2019-08-10 17:00:00 30.8 19 Sudeste 27 Sur 0 -- -- 69
2019-08-10 16:00:00 30.9 16 Sudeste 29 Sudeste 0 -- -- 67
2019-08-10 15:00:00 31.2 17 Sudeste 32 Sudeste 0 -- -- 65
2019-08-10 14:00:00 30.6 19 Sudeste 34 Sudeste 0 -- -- 69
2019-08-10 13:00:00 31 16 Sudeste 30 Sudeste 0 -- -- 68
2019-08-10 12:00:00 31.1 14 Sudeste 22 Sudeste 0 -- -- 65
2019-08-10 11:00:00 30.7 12 Sudeste 19 Sur 0 -- -- 67
2019-08-10 10:00:00 30.6 5 Este 14 Este 0 -- -- 79
2019-08-10 09:00:00 26.4 6 Nordeste 11 Nordeste 0 -- -- 94
2019-08-10 08:00:00 25.6 3 Oeste 10 Oeste 0 -- -- 96
2019-08-10 07:00:00 24.9 7 Oeste 17 Sudoeste 0 -- -- 96
2019-08-10 06:00:00 24.5 6 Oeste 12 Sudoeste 0 -- -- 95
2019-08-10 05:00:00 24.7 6 Sudoeste 13 Sudoeste 0 -- -- 94
2019-08-10 04:00:00 25 7 Sudoeste 15 Sudoeste 0 -- -- 94
2019-08-10 03:00:00 24.7 6 Sudoeste 10 Sur 0 -- -- 93
2019-08-10 02:00:00 24.6 6 Sur 11 Sur 0 -- -- 93
2019-08-10 01:00:00 24.6 4 Sur 8 Sur 0 -- -- 92
2019-08-10 00:00:00 25 4 Sur 10 Sudoeste 0 -- -- 91
2019-08-09 23:00:00 25.2 5 Sudoeste 9 Sudoeste 0 -- -- 90
2019-08-09 22:00:00 25.6 2 Sudoeste 11 Sudoeste 0 -- -- 88
2019-08-09 21:00:00 26.2 5 Sur 13 Sudoeste 0 -- -- 84
2019-08-09 20:00:00 28.7 8 Sur 15 Sudoeste 0 -- -- 76
2019-08-09 19:00:00 29.9 12 Sudoeste 20 Sudoeste 0 -- -- 70
2019-08-09 18:00:00 30.5 12 Sudoeste 22 Sudoeste 0 -- -- 69
2019-08-09 17:00:00 31 14 Sudoeste 22 Sudoeste 0 -- -- 68
2019-08-09 16:00:00 30.2 14 Sudoeste 25 Sur 0 -- -- 68
2019-08-09 15:00:00 30.6 15 Sur 24 Sur 0 -- -- 68
2019-08-09 14:00:00 30.1 15 Sur 23 Sudoeste 0 -- -- 69
2019-08-09 13:00:00 30.1 14 Sur 28 Sur 0 -- -- 70
2019-08-09 12:00:00 29.6 13 Sur 24 Sur 0 -- -- 72
2019-08-09 11:00:00 29.7 12 Sur 19 Sur 0 -- -- 74
2019-08-09 10:00:00 29.2 11 Sur 19 Sudeste 0 -- -- 76
2019-08-09 09:00:00 27.7 8 Sudeste 15 Este 0 -- -- 88
2019-08-09 08:00:00 25.4 3 Sudoeste 9 Sudoeste 0 -- -- 95
2019-08-09 07:00:00 24.3 4 Sudoeste 8 Sudoeste 0 -- -- 96
2019-08-09 06:00:00 24 4 Sudoeste 8 Sudoeste 0 -- -- 96
2019-08-09 05:00:00 24.2 4 Sudoeste 9 Sudoeste 0 -- -- 95
2019-08-09 04:00:00 24.3 6 Sudoeste 13 Sur 0 -- -- 95
2019-08-09 03:00:00 24.4 7 Sur 13 Sur 0 -- -- 94
2019-08-09 02:00:00 24.4 3 Sur 6 Sur 0 -- -- 93
2019-08-09 01:00:00 24.4 3 Sudeste 5 Norte 0 -- -- 93
2019-08-09 00:00:00 24.9 3 Sur 8 Sur 0 -- -- 91
2019-08-08 23:00:00 25.1 4 Sur 6 Sudeste 0 -- -- 88
2019-08-08 22:00:00 25.4 0 Calma 8 Sudoeste 0 -- -- 86
2019-08-08 21:00:00 26.4 3 Oeste 11 Sudoeste 0 -- -- 80
2019-08-08 20:00:00 29.4 7 Sudoeste 15 Sudoeste 0 -- -- 72
2019-08-08 19:00:00 30 10 Sudoeste 17 Oeste 0 -- -- 70
2019-08-08 18:00:00 31.2 12 Sudoeste 21 Sudoeste 0 -- -- 67
2019-08-08 17:00:00 31.5 13 Sudoeste 21 Sudoeste 0 -- -- 66
2019-08-08 16:00:00 30.3 14 Sudoeste 24 Sudoeste 0 -- -- 68
2019-08-08 15:00:00 31.3 15 Sudoeste 22 Sur 0 -- -- 65
2019-08-08 14:00:00 30.3 16 Sur 24 Sur 0 -- -- 70
2019-08-08 13:00:00 30.6 14 Sudoeste 23 Sur 0 -- -- 70
2019-08-08 12:00:00 30.7 12 Sur 19 Sur 0 -- -- 68
2019-08-08 11:00:00 30.1 9 Sudeste 18 Sudeste 0 -- -- 72
2019-08-08 10:00:00 28.4 9 Sudeste 18 Este 0 -- -- 77
2019-08-08 09:00:00 26.9 9 Sudeste 13 Sudeste 0 -- -- 88
2019-08-08 08:00:00 24.5 8 Este 11 Sudeste 0 -- -- 92
2019-08-08 07:00:00 23.6 5 Sudeste 8 Noroeste 0 -- -- 91
2019-08-08 06:00:00 24.4 7 Norte 11 Noroeste 0 -- -- 90
2019-08-08 05:00:00 24.8 6 Norte 18 Este 0 -- -- 89
2019-08-08 04:00:00 25.3 0 Calma 6 Noroeste 0 -- -- 89
2019-08-08 03:00:00 25 0 Calma 7 Sur 0 -- -- 90
2019-08-08 02:00:00 25.4 5 Sudoeste 11 Sur 0 -- -- 90
2019-08-08 01:00:00 25.2 4 Sur 9 Sudeste 0 -- -- 88
2019-08-08 00:00:00 25.8 4 Sudeste 20 Este 0 -- -- 85
2019-08-07 23:00:00 26.1 12 Este 18 Este 0 -- -- 85
2019-08-07 22:00:00 25.5 4 Oeste 10 Noroeste 0 -- -- 86
2019-08-07 21:00:00 25.9 6 Noroeste 16 Oeste 0 -- -- 84
2019-08-07 20:00:00 27.1 11 Oeste 18 Noroeste 0 -- -- 78
2019-08-07 19:00:00 28.9 9 Oeste 25 Oeste 0 -- -- 71
2019-08-07 18:00:00 30.6 15 Oeste 24 Sudoeste 0 -- -- 64
2019-08-07 17:00:00 31.3 15 Sudoeste 24 Sudoeste 0 -- -- 62
2019-08-07 16:00:00 31.7 16 Sudoeste 26 Sudoeste 0 -- -- 61
2019-08-07 15:00:00 31.7 12 Sudoeste 23 Sudoeste 0 -- -- 63
2019-08-07 14:00:00 31.1 14 Sudoeste 26 Sudoeste 0 -- -- 65
2019-08-07 13:00:00 30.4 12 Sudoeste 21 Oeste 0 -- -- 68
2019-08-07 12:00:00 30.8 11 Sudoeste 18 Sur 0 -- -- 70
2019-08-07 11:00:00 28.4 11 Sur 18 Sur 0 -- -- 78
2019-08-07 10:00:00 27.1 10 Sur 17 Sur 0 -- -- 86
2019-08-07 09:00:00 25.5 6 Sudeste 10 Este 0 -- -- 94
2019-08-07 08:00:00 23.7 5 Este 8 Este 0 -- -- 96
2019-08-07 07:00:00 22.8 6 Nordeste 9 Nordeste 0 -- -- 95
2019-08-07 06:00:00 22.8 6 Nordeste 7 Nordeste 0 -- -- 94
2019-08-07 05:00:00 23.8 2 Sudoeste 9 Sur 0 -- -- 94
2019-08-07 04:00:00 24.1 8 Sur 12 Sur 0 -- -- 94
2019-08-07 03:00:00 23.7 5 Norte 7 Norte 0 -- -- 92
2019-08-07 02:00:00 24.5 4 Sur 7 Sur 0 -- -- 92
2019-08-07 01:00:00 24.4 3 Este 9 Sudeste 0 -- -- 91
2019-08-07 00:00:00 24.7 5 Sudeste 11 Sudeste 0 -- -- 90
2019-08-06 23:00:00 24.9 6 Sur 9 Sur 0 -- -- 89
2019-08-06 22:00:00 24.9 0 Calma 6 Nordeste 0 -- -- 87
2019-08-06 21:00:00 25.4 4 Norte 15 Oeste 0 -- -- 84
2019-08-06 20:00:00 27.5 9 Oeste 22 Sudoeste 0 -- -- 77
2019-08-06 19:00:00 29.6 15 Oeste 23 Sudoeste 0 -- -- 70
2019-08-06 18:00:00 30.2 14 Oeste 27 Oeste 0 -- -- 69
2019-08-06 17:00:00 30.4 16 Oeste 27 Oeste 0 -- -- 68
2019-08-06 16:00:00 30.9 18 Oeste 26 Oeste 0 -- -- 68
2019-08-06 15:00:00 29.9 19 Oeste 25 Oeste 0 -- -- 69
2019-08-06 14:00:00 30.9 15 Oeste 31 Sudoeste 0 -- -- 66
2019-08-06 13:00:00 30.2 15 Sudoeste 21 Sudoeste 0 -- -- 70
2019-08-06 12:00:00 29.4 14 Sur 21 Sudoeste 0 -- -- 71
2019-08-06 11:00:00 29.2 15 Sudeste 22 Sur 0 -- -- 70
2019-08-06 10:00:00 28.6 9 Este 19 Sudeste 0 -- -- 75
2019-08-06 09:00:00 26.2 15 Este 22 Este 0 -- -- 92
2019-08-06 08:00:00 23.6 6 Nordeste 12 Norte 0 -- -- 96
2019-08-06 07:00:00 22.7 8 Nordeste 13 Este 0 -- -- 95
2019-08-06 06:00:00 23.1 7 Nordeste 11 Nordeste 0 -- -- 95
2019-08-06 05:00:00 23.1 6 Nordeste 15 Nordeste 0 -- -- 94
2019-08-06 04:00:00 23.1 8 Nordeste 11 Norte 0 -- -- 93
2019-08-06 03:00:00 23.2 6 Norte 10 Norte 0 -- -- 92
2019-08-06 02:00:00 23.7 5 Este 8 Este 0 -- -- 91
2019-08-06 01:00:00 24 7 Este 11 Este 0 -- -- 90
2019-08-06 00:00:00 24.1 8 Este 13 Este 0 -- -- 89
2019-08-05 23:00:00 24.6 10 Este 18 Este 0 -- -- 88
2019-08-05 22:00:00 25.2 14 Este 23 Sudeste 0 -- -- 87
2019-08-05 21:00:00 25.7 14 Sudeste 23 Este 0 -- -- 83
2019-08-05 20:00:00 27.2 14 Sudeste 23 Sudeste 0 -- -- 75
2019-08-05 19:00:00 29 13 Sudeste 27 Este 0 -- -- 66
2019-08-05 18:00:00 29.1 17 Sudeste 28 Sudeste 0 -- -- 68
2019-08-05 17:00:00 29.7 17 Sudeste 31 Sudeste 0 -- -- 65
2019-08-05 16:00:00 30.2 17 Sudeste 32 Sur 0 -- -- 62
2019-08-05 15:00:00 29.9 16 Sudeste 27 Sudeste 0 -- -- 61
2019-08-05 14:00:00 30.6 13 Sudeste 25 Sudeste 0 -- -- 54
2019-08-05 13:00:00 31.1 12 Sudeste 23 Sudeste 0 -- -- 50
2019-08-05 12:00:00 30.5 12 Sudeste 23 Sudeste 0 -- -- 58
2019-08-05 11:00:00 30.2 13 Sudeste 28 Este 0 -- -- 63
2019-08-05 10:00:00 29.1 14 Sudeste 22 Este 0 -- -- 60
2019-08-05 09:00:00 27 13 Este 20 Este 0 -- -- 73
2019-08-05 08:00:00 24.3 9 Nordeste 16 Este 0 -- -- 77
2019-08-05 07:00:00 22.5 10 Este 17 Este 0 -- -- 78
2019-08-05 06:00:00 22.4 10 Nordeste 15 Nordeste 0 -- -- 75
2019-08-05 05:00:00 22.1 9 Nordeste 15 Norte 0 -- -- 75
2019-08-05 04:00:00 22.4 8 Nordeste 14 Nordeste 0 -- -- 81
2019-08-05 03:00:00 22.3 9 Nordeste 14 Nordeste 0 -- -- 82
2019-08-05 02:00:00 22.7 9 Nordeste 15 Nordeste 0 -- -- 79
2019-08-05 01:00:00 23.5 11 Este 19 Este 0 -- -- 78
2019-08-05 00:00:00 23.8 9 Este 14 Este 0 -- -- 73
2019-08-04 23:00:00 24.7 10 Este 15 Este 0 -- -- 69
2019-08-04 22:00:00 25.4 9 Este 19 Este 0 -- -- 65
2019-08-04 21:00:00 26.6 13 Este 23 Este 0 -- -- 62
2019-08-04 20:00:00 28.8 13 Sudeste 24 Sudeste 0 -- -- 52
2019-08-04 19:00:00 29.5 14 Sudeste 27 Sudeste 0 -- -- 51
2019-08-04 18:00:00 30.8 14 Sudeste 24 Sudeste 0 -- -- 49
2019-08-04 17:00:00 31.6 14 Sudeste 23 Sudeste 0 -- -- 44
2019-08-04 16:00:00 31.3 13 Sudeste 23 Sudeste 0 -- -- 43
2019-08-04 15:00:00 32 13 Sudeste 24 Sur 0 -- -- 41
2019-08-04 14:00:00 31.6 14 Sudeste 29 Sur 0 -- -- 40
2019-08-04 13:00:00 31.8 19 Sudeste 31 Este 0 -- -- 31
2019-08-04 12:00:00 31.1 16 Sudeste 27 Sudeste 0 -- -- 32
2019-08-04 11:00:00 32.4 12 Sudeste 20 Sudeste 0 -- -- 27
2019-08-04 10:00:00 31.6 8 Sudoeste 15 Sur 0 -- -- 34
2019-08-04 09:00:00 30.5 7 Este 13 Este 0 -- -- 30
2019-08-04 08:00:00 25.8 9 Nordeste 13 Norte 0 -- -- 37
2019-08-04 07:00:00 23.6 8 Nordeste 12 Nordeste 0 -- -- 41
2019-08-04 06:00:00 22.7 10 Nordeste 16 Nordeste 0 -- -- 44
2019-08-04 05:00:00 22.3 11 Nordeste 17 Nordeste 0 -- -- 47
2019-08-04 04:00:00 22.4 12 Nordeste 15 Nordeste 0 -- -- 55
2019-08-04 03:00:00 22.1 7 Norte 12 Nordeste 0 -- -- 68
2019-08-04 02:00:00 22.2 9 Nordeste 14 Nordeste 0 -- -- 72
2019-08-04 01:00:00 23 9 Nordeste 15 Este 0 -- -- 75
2019-08-04 00:00:00 23.9 11 Este 14 Este 0 -- -- 70
2019-08-03 23:00:00 24.2 10 Este 19 Este 0 -- -- 66
2019-08-03 22:00:00 24.7 11 Este 16 Este 0 -- -- 62
2019-08-03 21:00:00 26 12 Este 22 Este 0 -- -- 61
2019-08-03 20:00:00 27.9 12 Sudeste 25 Este 0 -- -- 55
2019-08-03 19:00:00 29.1 16 Sudeste 29 Sudeste 0 -- -- 50
2019-08-03 18:00:00 29.6 17 Sudeste 29 Sudeste 0 -- -- 52
2019-08-03 17:00:00 30.2 15 Sudeste 27 Sudeste 0 -- -- 56
2019-08-03 16:00:00 29.8 19 Sudeste 31 Sudeste 0 -- -- 53
2019-08-03 15:00:00 30.1 19 Sudeste 35 Sudeste 0 -- -- 52
2019-08-03 14:00:00 30.8 17 Sudeste 30 Sudeste 0 -- -- 50
2019-08-03 13:00:00 30.5 17 Sudeste 27 Sudeste 0 -- -- 49
2019-08-03 12:00:00 31.6 13 Sudoeste 23 Nordeste 0 -- -- 43
2019-08-03 11:00:00 32.3 15 Este 26 Este 0 -- -- 32
2019-08-03 10:00:00 30.3 15 Este 25 Este 0 -- -- 37
2019-08-03 09:00:00 29.3 12 Este 23 Este 0 -- -- 35
2019-08-03 08:00:00 26.6 9 Nordeste 17 Nordeste 0 -- -- 37
2019-08-03 07:00:00 22.7 11 Norte 15 Norte 0 -- -- 48
2019-08-03 06:00:00 21.9 7 Norte 10 Norte 0 -- -- 57
2019-08-03 05:00:00 21.6 8 Norte 11 Norte 0 -- -- 58
2019-08-03 04:00:00 21.8 8 Nordeste 11 Nordeste 0 -- -- 59
2019-08-03 03:00:00 22.4 5 Norte 11 Nordeste 0 -- -- 57
2019-08-03 02:00:00 22 8 Nordeste 11 Nordeste 0 -- -- 61
2019-08-03 01:00:00 22.5 6 Nordeste 9 Nordeste 0 -- -- 62
2019-08-03 00:00:00 22.9 6 Este 13 Este 0 -- -- 61
2019-08-02 23:00:00 23.5 5 Este 8 Este 0 -- -- 71
2019-08-02 22:00:00 25.2 0 Calma 6 Sudoeste 0 -- -- 69
2019-08-02 21:00:00 26.4 5 Sudoeste 10 Oeste 0 -- -- 65
2019-08-02 20:00:00 28.2 6 Oeste 15 Oeste 0 -- -- 61
2019-08-02 19:00:00 30 9 Sudoeste 16 Sudoeste 0 -- -- 55
2019-08-02 18:00:00 30.5 11 Sudoeste 21 Sudoeste 0 -- -- 55
2019-08-02 17:00:00 31 13 Sudoeste 23 Sur 0 -- -- 53
2019-08-02 16:00:00 31.7 13 Sudeste 26 Sudeste 0 -- -- 34
2019-08-02 15:00:00 30.4 18 Sudeste 26 Sur 0 -- -- 48
2019-08-02 14:00:00 32.4 12 Sur 23 Oeste 0 -- -- 41
2019-08-02 13:00:00 31.3 12 Oeste 24 Nordeste 0 -- -- 46
2019-08-02 12:00:00 32.6 13 Este 27 Nordeste 0 -- -- 35
2019-08-02 11:00:00 32 15 Nordeste 30 Nordeste 0 -- -- 36
2019-08-02 10:00:00 31.5 9 Nordeste 28 Nordeste 0 -- -- 36
2019-08-02 09:00:00 28.5 15 Nordeste 28 Nordeste 0 -- -- 45
2019-08-02 08:00:00 25.2 9 Este 26 Nordeste 0 -- -- 69
2019-08-02 07:00:00 23.4 13 Nordeste 27 Nordeste 0 -- -- 88
2019-08-02 06:00:00 23.4 11 Norte 18 Norte 0 -- -- 89
2019-08-02 05:00:00 23 8 Norte 13 Norte 0 -- -- 90
2019-08-02 04:00:00 24 5 Noroeste 7 Noroeste 0 -- -- 90
2019-08-02 03:00:00 24.2 5 Noroeste 12 Norte 0 -- -- 87
2019-08-02 02:00:00 25.4 5 Oeste 10 Oeste 0 -- -- 84
2019-08-02 01:00:00 25.2 8 Sudeste 13 Sur 0 -- -- 78
2019-08-02 00:00:00 25 4 Sur 12 Norte 0 -- -- 72
2019-08-01 23:00:00 25.6 8 Norte 20 Nordeste 0 -- -- 71
2019-08-01 22:00:00 26.3 12 Nordeste 22 Este 0 -- -- 69
2019-08-01 21:00:00 27.3 8 Nordeste 27 Este 0 -- -- 70
2019-08-01 20:00:00 27.4 19 Este 38 Este 0 -- -- 70
2019-08-01 19:00:00 27.6 7 Este 21 Sur 0 -- -- 61
2019-08-01 18:00:00 28.1 6 Sur 18 Sudoeste 0 -- -- 63
2019-08-01 17:00:00 28.3 10 Sudoeste 18 Sudoeste 0 -- -- 64
2019-08-01 16:00:00 30.5 10 Sudoeste 21 Sudoeste 0 -- -- 58
2019-08-01 15:00:00 32.4 13 Sudoeste 27 Sudeste 0 -- -- 57
2019-08-01 14:00:00 33.2 9 Sudoeste 23 Noroeste 0 -- -- 49
2019-08-01 13:00:00 34.9 7 Este 27 Sudeste 0 -- -- 42
2019-08-01 12:00:00 31.9 18 Este 40 Este 0 -- -- 47
2019-08-01 11:00:00 30.9 21 Este 41 Este 0 -- -- 49
2019-08-01 10:00:00 29.4 21 Este 37 Este 0 -- -- 53
2019-08-01 09:00:00 27.1 22 Nordeste 39 Nordeste 0 -- -- 62
2019-08-01 08:00:00 24.5 22 Nordeste 40 Este 0 -- -- 70
2019-08-01 07:00:00 23.1 23 Nordeste 39 Nordeste 0 -- -- 70
2019-08-01 06:00:00 23.2 24 Nordeste 42 Este 0 -- -- 67
2019-08-01 05:00:00 23.1 24 Nordeste 42 Nordeste 0 -- -- 70
2019-08-01 04:00:00 23.1 22 Nordeste 41 Nordeste 0 -- -- 70
2019-08-01 03:00:00 22.7 17 Nordeste 30 Nordeste 0 -- -- 68
2019-08-01 02:00:00 22.9 17 Nordeste 29 Nordeste 0 -- -- 65
2019-08-01 01:00:00 23 14 Nordeste 28 Nordeste 0 -- -- 64
2019-08-01 00:00:00 23.3 17 Nordeste 38 Nordeste 0 -- -- 65
2019-07-31 23:00:00 23.6 22 Nordeste 36 Nordeste 0 -- -- 67
2019-07-31 22:00:00 24.3 12 Nordeste 31 Nordeste 0 -- -- 63
2019-07-31 21:00:00 25.3 14 Nordeste 36 Nordeste 0 -- -- 58
2019-07-31 20:00:00 26.6 18 Nordeste 35 Nordeste 0 -- -- 53
2019-07-31 19:00:00 28.5 18 Este 36 Este 0 -- -- 42
2019-07-31 18:00:00 29.5 14 Este 31 Este 0 -- -- 39
2019-07-31 17:00:00 29.9 22 Este 37 Este 0 -- -- 40
2019-07-31 16:00:00 30.9 16 Este 36 Este 0 -- -- 38
2019-07-31 15:00:00 30.8 22 Este 50 Este 0 -- -- 39
2019-07-31 14:00:00 29.5 28 Este 49 Este 0 -- -- 43
2019-07-31 13:00:00 27.6 21 Este 39 Este 0 -- -- 48
2019-07-31 12:00:00 27.9 23 Este 45 Este 0 -- -- 47
2019-07-31 11:00:00 29.8 26 Nordeste 46 Este 0 -- -- 44
2019-07-31 10:00:00 27.6 27 Nordeste 46 Nordeste 0 -- -- 52
2019-07-31 09:00:00 25.7 22 Nordeste 42 Nordeste 0 -- -- 62
2019-07-31 08:00:00 23.6 23 Nordeste 37 Nordeste 0 -- -- 71
2019-07-31 07:00:00 21.7 17 Nordeste 27 Nordeste 0 -- -- 77
2019-07-31 06:00:00 21.8 14 Nordeste 27 Nordeste 0 -- -- 78
2019-07-31 05:00:00 22.2 16 Nordeste 31 Nordeste 0 -- -- 77
2019-07-31 04:00:00 22.4 19 Nordeste 30 Nordeste 0 -- -- 78
2019-07-31 03:00:00 22.6 14 Nordeste 23 Nordeste 0 -- -- 78
2019-07-31 02:00:00 22.8 14 Este 26 Este 0 -- -- 82
2019-07-31 01:00:00 23.2 13 Nordeste 23 Nordeste 0 -- -- 84
2019-07-31 00:00:00 23.8 12 Este 24 Este 0 -- -- 82
2019-07-30 23:00:00 24.6 15 Este 24 Este 0 -- -- 79
2019-07-30 22:00:00 25.2 12 Este 17 Este 0 -- -- 76
2019-07-30 21:00:00 25.7 10 Sudeste 19 Sudeste 0 -- -- 73
2019-07-30 20:00:00 27.5 13 Sudeste 23 Sudeste 0 -- -- 64
2019-07-30 19:00:00 28.4 15 Sudeste 23 Sudeste 0 -- -- 62
2019-07-30 18:00:00 30.4 10 Sur 19 Sur 0 -- -- 57
2019-07-30 17:00:00 30.6 13 Sudoeste 21 Sur 0 -- -- 56
2019-07-30 16:00:00 30.6 12 Sudoeste 22 Sudoeste 0 -- -- 56
2019-07-30 15:00:00 30.2 13 Sudoeste 24 Sudoeste 0 -- -- 57
2019-07-30 14:00:00 30.2 15 Sudeste 26 Sudeste 0 -- -- 52
2019-07-30 13:00:00 29.8 15 Sur 27 Sur 0 -- -- 56
2019-07-30 12:00:00 29.1 13 Sur 21 Sur 0 -- -- 61
2019-07-30 11:00:00 29.1 13 Sur 18 Sudeste 0 -- -- 60
2019-07-30 10:00:00 30.7 4 Este 12 Nordeste 0 -- -- 45
2019-07-30 09:00:00 27.9 6 Nordeste 12 Nordeste 0 -- -- 66
2019-07-30 08:00:00 23.4 7 Nordeste 11 Nordeste 0 -- -- 86
2019-07-30 07:00:00 20.5 8 Nordeste 11 Nordeste 0 -- -- 89
2019-07-30 06:00:00 20.9 8 Nordeste 12 Nordeste 0 -- -- 88
2019-07-30 05:00:00 21 5 Nordeste 9 Nordeste 0 -- -- 86
2019-07-30 04:00:00 23 2 Sudeste 9 Sur 0 -- -- 82
2019-07-30 03:00:00 23.1 6 Sur 13 Sudoeste 0 -- -- 81
2019-07-30 02:00:00 23.3 6 Sur 13 Sudoeste 0 -- -- 81
2019-07-30 01:00:00 23.4 7 Sudoeste 12 Sur 0 -- -- 80
2019-07-30 00:00:00 23.5 6 Sur 9 Sur 0 -- -- 77
2019-07-29 23:00:00 23.8 4 Sur 7 Sur 0 -- -- 75
2019-07-29 22:00:00 24.2 3 Sur 8 Sur 0 -- -- 72
2019-07-29 21:00:00 25.8 5 Sudoeste 13 Sudoeste 0 -- -- 67
2019-07-29 20:00:00 27.8 9 Sudoeste 18 Oeste 0 -- -- 61
2019-07-29 19:00:00 29.1 12 Sudoeste 21 Sudoeste 0 -- -- 58
2019-07-29 18:00:00 29.4 12 Sudoeste 23 Sudoeste 0 -- -- 57
2019-07-29 17:00:00 30.4 15 Sudoeste 26 Sur 0 -- -- 55
2019-07-29 16:00:00 30 15 Sudoeste 25 Sur 0 -- -- 56
2019-07-29 15:00:00 29.7 16 Sudoeste 25 Sudoeste 0 -- -- 54
2019-07-29 14:00:00 29.7 12 Sudoeste 21 Sudoeste 0 -- -- 53
2019-07-29 13:00:00 29.5 13 Sudoeste 24 Sudoeste 0 -- -- 53
2019-07-29 12:00:00 29.6 14 Sudoeste 22 Sudoeste 0 -- -- 50
2019-07-29 11:00:00 29.2 13 Sudoeste 28 Sudoeste 0 -- -- 54
2019-07-29 10:00:00 28.7 12 Sudoeste 18 Oeste 0 -- -- 59
2019-07-29 09:00:00 27.7 7 Sudoeste 14 Sudoeste 0 -- -- 64
2019-07-29 08:00:00 26 8 Sudoeste 13 Sudoeste 0 -- -- 71
2019-07-29 07:00:00 22.6 6 Sudoeste 14 Sudoeste 0 -- -- 82
2019-07-29 06:00:00 22.3 7 Oeste 15 Sudoeste 0 -- -- 82
2019-07-29 05:00:00 22.4 8 Oeste 17 Sudoeste 0 -- -- 80
2019-07-29 04:00:00 22.4 10 Oeste 18 Sudoeste 0 -- -- 79
2019-07-29 03:00:00 22 8 Oeste 13 Sudoeste 0 -- -- 78
2019-07-29 02:00:00 22 9 Oeste 14 Sudoeste 0 -- -- 76
2019-07-29 01:00:00 22.3 9 Oeste 17 Oeste 0 -- -- 72
2019-07-29 00:00:00 22.8 10 Oeste 19 Oeste 0 -- -- 69
2019-07-28 23:00:00 23.1 12 Oeste 26 Oeste 0 -- -- 66
2019-07-28 22:00:00 23.4 15 Oeste 30 Oeste 0 -- -- 60
2019-07-28 21:00:00 24.1 17 Oeste 28 Sudoeste 0 -- -- 57
2019-07-28 20:00:00 26 15 Oeste 29 Oeste 0 -- -- 53
2019-07-28 19:00:00 27 17 Oeste 32 Oeste 0 -- -- 49
2019-07-28 18:00:00 27.3 19 Oeste 35 Oeste 0 -- -- 51
2019-07-28 17:00:00 28 20 Oeste 38 Oeste 0 -- -- 47
2019-07-28 16:00:00 28 21 Oeste 33 Oeste 0 -- -- 48
2019-07-28 15:00:00 29.1 18 Oeste 31 Oeste 0 -- -- 49
2019-07-28 14:00:00 28 19 Oeste 31 Oeste 0 -- -- 52
2019-07-28 13:00:00 29 17 Oeste 30 Oeste 0 -- -- 49
2019-07-28 12:00:00 28.7 16 Oeste 31 Noroeste 0 -- -- 49
2019-07-28 11:00:00 27.6 17 Noroeste 29 Noroeste 0 -- -- 49
2019-07-28 10:00:00 27.5 8 Noroeste 21 Norte 0 -- -- 48
2019-07-28 09:00:00 25.5 13 Noroeste 23 Noroeste 0 -- -- 56
2019-07-28 08:00:00 24.8 6 Sudeste 17 Noroeste 0 -- -- 55
2019-07-28 07:00:00 21.5 12 Noroeste 17 Noroeste 0 -- -- 63
2019-07-28 06:00:00 22.3 10 Noroeste 29 Norte 0 -- -- 63
2019-07-28 05:00:00 23.3 16 Noroeste 35 Norte 0 -- -- 57
2019-07-28 04:00:00 24.2 19 Noroeste 32 Noroeste 0 -- -- 57
2019-07-28 03:00:00 24.7 14 Noroeste 24 Noroeste 0 -- -- 55
2019-07-28 02:00:00 24.9 15 Noroeste 22 Oeste 0 -- -- 67
2019-07-28 01:00:00 24.7 9 Oeste 15 Oeste 0 -- -- 76
2019-07-28 00:00:00 24.8 7 Oeste 15 Oeste 0 -- -- 71
2019-07-27 23:00:00 25.3 9 Oeste 18 Oeste 0 -- -- 72
2019-07-26 12:00:00 -- -- -- -- -- -- -- -- --
2019-07-26 11:00:00 30.1 14 Sudeste 26 Sudeste 0 -- -- 62
2019-07-26 10:00:00 30.1 13 Sudeste 22 Este 0 -- -- 50
2019-07-26 09:00:00 28.7 12 Este 23 Este 0 -- -- 58
2019-07-26 08:00:00 26.5 6 Nordeste 15 Nordeste 0 -- -- 59
2019-07-26 07:00:00 22.7 8 Nordeste 14 Nordeste 0 -- -- 71
2019-07-26 06:00:00 22.9 12 Nordeste 20 Nordeste 0 -- -- 71
2019-07-26 05:00:00 22.7 8 Nordeste 12 Nordeste 0 -- -- 70
2019-07-26 04:00:00 23.4 8 Nordeste 14 Este 0 -- -- 69
2019-07-26 03:00:00 23.4 10 Nordeste 16 Nordeste 0 -- -- 67
2019-07-26 02:00:00 24.1 13 Este 18 Este 0 -- -- 68
2019-07-26 01:00:00 24.2 12 Este 17 Este 0 -- -- 71
2019-07-26 00:00:00 24.7 12 Este 19 Este 0 -- -- 73
2019-07-25 23:00:00 25.4 12 Este 21 Este 0 -- -- 69
2019-07-25 22:00:00 26 13 Este 23 Este 0 -- -- 68
2019-07-25 21:00:00 27.1 14 Este 24 Este 0 -- -- 65
2019-07-25 20:00:00 28.9 13 Sudeste 23 Este 0 -- -- 56
2019-07-25 19:00:00 30.7 15 Sudeste 25 Sudeste 0 -- -- 51
2019-07-25 18:00:00 31.9 16 Sudeste 25 Este 0 -- -- 45
2019-07-25 17:00:00 32.5 18 Sudeste 27 Sudeste 0 -- -- 34
2019-07-25 16:00:00 32.3 16 Sudeste 30 Sudeste 0 -- -- 37
2019-07-25 15:00:00 32.3 20 Sudeste 31 Sudeste 0 -- -- 37
2019-07-25 14:00:00 32.3 21 Sudeste 30 Sudeste 0 -- -- 35
2019-07-25 13:00:00 32.3 16 Sudeste 28 Sudeste 0 -- -- 46
2019-07-25 12:00:00 31.8 13 Sudeste 21 Sudeste 0 -- -- 53
2019-07-25 11:00:00 32.6 6 Sur 17 Este 0 -- -- 46
2019-07-25 10:00:00 32.2 9 Este 21 Este 0 -- -- 46
2019-07-25 09:00:00 28.7 12 Este 21 Nordeste 0 -- -- 66
2019-07-25 08:00:00 24.8 10 Nordeste 17 Nordeste 0 -- -- 87
2019-07-25 07:00:00 22.2 10 Este 15 Nordeste 0 -- -- 89
2019-07-25 06:00:00 22.6 9 Nordeste 14 Nordeste 0 -- -- 85
2019-07-25 05:00:00 23.1 7 Este 10 Este 0 -- -- 82
2019-07-25 04:00:00 22.9 5 Nordeste 12 Nordeste 0 -- -- 82
2019-07-25 03:00:00 23.1 9 Nordeste 12 Nordeste 0 -- -- 84
2019-07-25 02:00:00 23.3 9 Nordeste 15 Este 0 -- -- 83
2019-07-25 01:00:00 23.7 9 Este 15 Este 0 -- -- 82
2019-07-25 00:00:00 24.2 9 Este 16 Este 0 -- -- 76
2019-07-24 23:00:00 24.8 12 Este 17 Este 0 -- -- 71
2019-07-24 22:00:00 25.5 10 Este 17 Este 0 -- -- 73
2019-07-24 21:00:00 26.4 12 Sudeste 18 Sudeste 0 -- -- 71
2019-07-24 20:00:00 27.7 12 Sudeste 20 Sur 0 -- -- 65
2019-07-24 19:00:00 30.2 12 Sudeste 19 Sur 0 -- -- 46
2019-07-24 18:00:00 30.8 13 Sudeste 22 Sudeste 0 -- -- 49
2019-07-24 17:00:00 31.2 13 Sur 22 Sudeste 0 -- -- 47
2019-07-24 16:00:00 31.3 17 Sudeste 27 Sudeste 0 -- -- 47
2019-07-24 15:00:00 31.3 15 Sudeste 24 Sur 0 -- -- 50
2019-07-24 14:00:00 32.3 10 Sur 17 Sur 0 -- -- 49
2019-07-24 13:00:00 33.8 10 Sudoeste 18 Sudoeste 0 -- -- 33
2019-07-24 12:00:00 34.2 10 Sudoeste 15 Sudoeste 0 -- -- 27
2019-07-24 11:00:00 32.8 9 Oeste 15 Sur 0 -- -- 34
2019-07-24 10:00:00 33.2 5 Nordeste 13 Este 0 -- -- 27
2019-07-24 09:00:00 30 8 Este 15 Este 0 -- -- 42
2019-07-24 08:00:00 26.7 5 Nordeste 12 Nordeste 0 -- -- 52
2019-07-24 07:00:00 22.5 9 Nordeste 12 Nordeste 0 -- -- 65
2019-07-24 06:00:00 22.3 8 Nordeste 15 Nordeste 0 -- -- 71
2019-07-24 05:00:00 22.3 11 Nordeste 17 Este 0 -- -- 79
2019-07-24 04:00:00 23.1 10 Este 19 Este 0 -- -- 76
2019-07-24 03:00:00 23.3 12 Este 18 Nordeste 0 -- -- 75
2019-07-24 02:00:00 22.9 8 Nordeste 13 Nordeste 0 -- -- 83
2019-07-24 01:00:00 23.6 9 Nordeste 18 Nordeste 0 -- -- 84
2019-07-24 00:00:00 24.4 12 Este 21 Este 0 -- -- 82